Time;durP1;ratioP1;P1;durP2;ratioP2;P2;SDS_P1;SDS_P2;PMS_P1;PMS_P2;Temp;Humidity;BMP_temperature;BMP_pressure;BME280_temperature;BME280_humidity;BME280_pressure;Samples;Min_cycle;Max_cycle;Signal;HPM_P1;HPM_P2
2022/11/20 00:01:38;;;;;;;19.42;9.55;;;;;;;10.96;82.85;101925.52;1861637;76;21077;-54
2022/11/20 00:04:07;;;;;;;21.27;9.88;;;;;;;10.96;82.72;101922.88;1844974;75;21088;-56
2022/11/20 00:06:36;;;;;;;21.70;10.20;;;;;;;10.91;82.67;101933.50;1858786;77;21059;-54
2022/11/20 00:09:05;;;;;;;22.32;9.20;;;;;;;10.88;82.67;101932.70;1858798;77;21553;-53
2022/11/20 00:11:34;;;;;;;20.43;9.58;;;;;;;10.85;82.80;101928.83;1858868;77;21070;-54
2022/11/20 00:14:03;;;;;;;19.50;9.00;;;;;;;10.84;82.95;101940.25;1858948;77;21137;-52
2022/11/20 00:16:33;;;;;;;21.87;9.43;;;;;;;10.88;82.89;101947.19;1845648;77;21126;-53
2022/11/20 00:19:02;;;;;;;22.73;8.90;;;;;;;10.87;82.72;101945.47;1843930;78;21094;-59
2022/11/20 00:21:31;;;;;;;22.95;9.98;;;;;;;10.85;82.63;101951.23;1831241;78;21079;-48
2022/11/20 00:24:00;;;;;;;22.93;9.80;;;;;;;10.84;82.63;101952.97;1829726;78;21064;-48
2022/11/20 00:26:29;;;;;;;20.08;9.55;;;;;;;10.84;82.62;101943.75;1829474;78;21059;-47
2022/11/20 00:29:01;;;;;;;23.95;9.90;;;;;;;10.84;82.62;101937.63;1845814;77;21481;-49
2022/11/20 00:31:32;;;;;;;20.62;10.13;;;;;;;10.82;82.64;101928.42;1852414;76;21015;-47
2022/11/20 00:34:01;;;;;;;19.57;9.13;;;;;;;10.80;82.63;101932.41;1852538;77;21063;-49
2022/11/20 00:36:31;;;;;;;23.83;10.55;;;;;;;10.77;82.72;101928.54;1852507;77;21131;-50
2022/11/20 00:39:00;;;;;;;23.57;9.78;;;;;;;10.74;82.76;101928.59;1852484;77;21150;-58
2022/11/20 00:41:30;;;;;;;29.42;11.90;;;;;;;10.73;82.68;101920.25;1852583;76;21074;-54
2022/11/20 00:43:59;;;;;;;30.10;11.60;;;;;;;10.71;82.70;101913.30;1852557;77;21587;-50
2022/11/20 00:46:29;;;;;;;37.90;16.10;;;;;;;10.70;82.72;101909.80;1852457;77;21099;-48
2022/11/20 00:48:58;;;;;;;54.63;20.68;;;;;;;10.67;82.66;101899.32;1852525;77;21469;-48
2022/11/20 00:51:28;;;;;;;60.30;25.43;;;;;;;10.61;82.80;101904.73;1854100;77;21953;-52
2022/11/20 00:53:59;;;;;;;58.38;24.02;;;;;;;10.56;82.90;101898.68;1860689;77;21467;-53
2022/11/20 00:56:29;;;;;;;53.40;20.15;;;;;;;10.52;83.06;101900.97;1860575;77;21142;-53
2022/11/20 00:59:01;;;;;;;54.45;20.75;;;;;;;10.52;83.08;101904.91;1860585;77;21016;-53
2022/11/20 01:01:30;;;;;;;50.38;19.55;;;;;;;10.53;83.10;101911.90;1860557;77;21064;-50
2022/11/20 01:04:00;;;;;;;59.98;21.45;;;;;;;10.54;83.18;101904.43;1860601;77;21536;-50
2022/11/20 01:06:32;;;;;;;45.17;15.70;;;;;;;10.58;83.29;101910.05;1860533;77;21080;-50
2022/11/20 01:09:03;;;;;;;45.23;16.55;;;;;;;10.62;83.25;101907.77;1860676;77;21139;-51
2022/11/20 01:11:35;;;;;;;41.40;16.12;;;;;;;10.62;83.25;101911.28;1860590;77;21127;-54
2022/11/20 01:14:06;;;;;;;40.70;13.58;;;;;;;10.60;83.30;101906.93;1858983;77;21493;-53
2022/11/20 01:16:37;;;;;;;39.50;13.03;;;;;;;10.55;83.37;101897.83;1836747;77;21092;-53
2022/11/20 01:19:09;;;;;;;30.60;12.82;;;;;;;10.50;83.43;101896.18;1821608;78;21055;-54
2022/11/20 01:21:39;;;;;;;34.08;13.03;;;;;;;10.47;83.30;101892.28;1843961;77;21575;-54
2022/11/20 01:24:10;;;;;;;37.00;12.23;;;;;;;10.43;83.25;101890.16;1888614;76;21035;-54
2022/11/20 01:26:41;;;;;;;36.65;14.20;;;;;;;10.38;83.24;101890.27;1875427;76;21040;-59
2022/11/20 01:29:12;;;;;;;30.43;11.18;;;;;;;10.37;83.19;101898.19;1877152;76;21129;-49
2022/11/20 01:31:41;;;;;;;28.85;11.75;;;;;;;10.36;83.14;101889.41;1873635;76;21101;-60
2022/11/20 01:34:16;;;;;;;34.10;12.37;;;;;;;10.35;83.13;101887.69;1874953;76;21125;-56
2022/11/20 01:36:45;;;;;;;31.60;12.68;;;;;;;10.34;83.11;101892.52;1873979;76;21048;-53
2022/11/20 01:39:20;;;;;;;35.73;12.05;;;;;;;10.33;83.19;101896.06;1859838;77;21157;-48
2022/11/20 01:44:59;;;;;;;34.63;11.53;;;;;;;10.33;83.24;101897.38;1865751;76;21485;-57
2022/11/20 01:47:36;;;;;;;25.77;11.12;;;;;;;10.31;83.18;101899.18;1859849;77;21082;-52
2022/11/20 01:50:14;;;;;;;30.72;10.53;;;;;;;10.27;82.98;101896.59;1888225;76;21090;-57
2022/11/20 01:52:46;;;;;;;30.80;11.12;;;;;;;10.22;82.95;101905.91;1869146;76;21051;-56
2022/11/20 01:55:18;;;;;;;31.65;12.15;;;;;;;10.18;82.97;101900.25;1859553;77;21109;-58
2022/11/20 01:57:48;;;;;;;26.93;11.33;;;;;;;10.11;83.21;101902.61;1859872;77;21116;-55
2022/11/20 02:00:19;;;;;;;26.93;11.70;;;;;;;10.10;83.27;101899.55;1859984;77;21166;-58
2022/11/20 02:02:50;;;;;;;31.85;11.53;;;;;;;10.08;83.35;101905.28;1859990;77;21043;-56
2022/11/20 02:05:54;;;;;;;27.95;11.80;;;;;;;10.06;83.34;101896.09;1868888;76;21111;-54
2022/11/20 02:08:24;;;;;;;31.00;11.37;;;;;;;10.05;83.28;101899.19;1879968;76;21066;-55
2022/11/20 02:10:53;;;;;;;27.17;12.23;;;;;;;10.02;83.31;101911.53;1860018;77;21819;-55
2022/11/20 02:16:02;;;;;;;25.25;10.95;;;;;;;9.94;83.51;101905.09;1843640;76;21117;-57
2022/11/20 02:18:31;;;;;;;29.15;10.90;;;;;;;9.90;83.46;101891.55;1882325;76;21046;-54
2022/11/20 02:21:06;;;;;;;29.80;10.98;;;;;;;9.89;83.48;101893.78;1859385;76;21051;-50
2022/11/20 02:23:40;;;;;;;26.37;10.32;;;;;;;9.90;83.52;101894.18;1835745;77;21073;-57
2022/11/20 02:26:12;;;;;;;30.77;11.48;;;;;;;9.91;83.47;101893.30;1839354;77;21133;-54
2022/11/20 02:28:41;;;;;;;28.85;10.82;;;;;;;9.89;83.46;101897.72;1849367;77;21033;-58
2022/11/20 02:31:10;;;;;;;28.15;11.03;;;;;;;9.82;83.52;101893.00;1864407;77;21488;-58
2022/11/20 02:33:38;;;;;;;22.22;10.70;;;;;;;9.80;83.68;101896.57;1864522;77;21155;-54
2022/11/20 02:36:10;;;;;;;25.82;10.08;;;;;;;9.77;83.73;101889.58;1850463;77;21127;-53
2022/11/20 02:38:39;;;;;;;28.17;11.70;;;;;;;9.73;83.72;101889.22;1841891;77;21619;-50
2022/11/20 02:41:08;;;;;;;24.90;10.00;;;;;;;9.64;83.84;101888.92;1855779;77;21141;-57
2022/11/20 02:43:37;;;;;;;25.75;9.43;;;;;;;9.59;83.90;101877.64;1862667;77;21132;-54
2022/11/20 02:46:08;;;;;;;27.00;10.08;;;;;;;9.58;83.93;101882.91;1858528;77;21053;-55
2022/11/20 02:48:37;;;;;;;25.00;10.98;;;;;;;9.57;84.04;101893.00;1853595;77;21077;-57
2022/11/20 02:51:06;;;;;;;24.57;9.93;;;;;;;9.57;84.13;101900.47;1854797;77;21835;-57
2022/11/20 02:53:35;;;;;;;25.23;10.40;;;;;;;9.60;84.11;101898.22;1863485;77;21163;-56
2022/11/20 02:56:03;;;;;;;28.27;11.68;;;;;;;9.65;83.99;101900.33;1854322;77;21132;-55
2022/11/20 02:58:32;;;;;;;26.57;11.53;;;;;;;9.70;83.88;101889.72;1856004;77;21469;-52
2022/11/20 03:01:01;;;;;;;32.23;11.45;;;;;;;9.75;83.77;101885.25;1867566;77;21041;-57
2022/11/20 03:03:30;;;;;;;33.25;12.58;;;;;;;9.75;83.72;101889.20;1845114;77;21049;-50
2022/11/20 03:06:00;;;;;;;29.12;11.08;;;;;;;9.75;83.86;101887.42;1858161;77;21053;-54
2022/11/20 03:08:29;;;;;;;31.87;12.03;;;;;;;9.79;83.77;101892.19;1861634;76;21046;-52
2022/11/20 03:10:59;;;;;;;25.37;11.78;;;;;;;9.83;83.68;101892.55;1887277;76;21047;-51
2022/11/20 03:13:28;;;;;;;28.80;12.95;;;;;;;9.85;83.59;101890.79;1845848;77;21043;-49
2022/11/20 03:15:56;;;;;;;28.87;11.83;;;;;;;9.82;83.60;101886.89;1885562;76;21113;-50
2022/11/20 03:18:25;;;;;;;25.05;10.65;;;;;;;9.76;83.86;101887.00;1870774;76;21098;-51
2022/11/20 03:20:56;;;;;;;24.57;10.43;;;;;;;9.74;83.97;101879.55;1842489;78;21044;-51
2022/11/20 03:23:26;;;;;;;22.20;10.80;;;;;;;9.73;83.99;101888.36;1838965;78;21134;-48
2022/11/20 03:25:54;;;;;;;26.70;11.60;;;;;;;9.72;83.86;101891.87;1841351;78;21153;-51
2022/11/20 03:28:23;;;;;;;34.00;11.05;;;;;;;9.74;83.83;101894.02;1855596;77;21171;-58
2022/11/20 03:30:52;;;;;;;28.92;12.75;;;;;;;9.75;83.88;101895.31;1847680;77;21039;-58
2022/11/20 03:33:21;;;;;;;24.90;11.35;;;;;;;9.78;83.88;101902.31;1841327;78;21048;-57
2022/11/20 03:35:50;;;;;;;27.75;12.80;;;;;;;9.79;83.87;101890.87;1841473;78;21091;-52
2022/11/20 03:38:18;;;;;;;24.57;11.90;;;;;;;9.80;83.83;101889.54;1841279;78;21055;-49
2022/11/20 03:40:48;;;;;;;26.68;12.13;;;;;;;9.84;83.79;101882.46;1841290;78;21079;-48
2022/11/20 03:43:17;;;;;;;23.75;11.18;;;;;;;9.82;83.81;101894.78;1841344;78;21051;-56
2022/11/20 03:45:46;;;;;;;30.68;12.13;;;;;;;9.81;83.83;101884.71;1841305;78;21051;-53
2022/11/20 03:48:15;;;;;;;25.15;11.05;;;;;;;9.80;84.00;101880.78;1851991;77;21196;-47
2022/11/20 03:50:44;;;;;;;22.77;11.50;;;;;;;9.81;83.93;101881.19;1846827;77;21136;-46
2022/11/20 03:53:12;;;;;;;24.50;12.15;;;;;;;9.83;83.79;101878.08;1853260;77;21246;-48
2022/11/20 03:55:41;;;;;;;25.82;11.40;;;;;;;9.83;83.82;101885.97;1850054;77;21067;-45
2022/11/20 03:58:11;;;;;;;26.87;12.60;;;;;;;9.84;83.82;101879.38;1852028;77;21145;-48
2022/11/20 04:00:39;;;;;;;27.32;11.95;;;;;;;9.85;83.79;101871.06;1851831;76;21431;-52
2022/11/20 04:03:08;;;;;;;23.80;11.43;;;;;;;9.88;83.85;101873.61;1849099;77;21170;-51
2022/11/20 04:05:37;;;;;;;26.87;12.05;;;;;;;9.92;83.82;101867.84;1849654;76;21138;-48
2022/11/20 04:08:06;;;;;;;21.85;11.15;;;;;;;9.93;83.93;101862.56;1850368;77;21600;-47
2022/11/20 04:10:34;;;;;;;23.07;11.18;;;;;;;9.95;83.98;101862.08;1847442;77;21098;-47
2022/11/20 04:13:03;;;;;;;20.65;9.78;;;;;;;9.94;83.99;101861.69;1849726;77;21076;-48
2022/11/20 04:15:32;;;;;;;25.20;10.68;;;;;;;9.91;83.90;101854.30;1865164;76;21116;-47
2022/11/20 04:18:00;;;;;;;24.23;11.65;;;;;;;9.86;83.81;101865.74;1847767;77;21044;-48
2022/11/20 04:20:29;;;;;;;23.32;11.55;;;;;;;9.80;83.84;101863.69;1846528;77;21117;-48
2022/11/20 04:22:57;;;;;;;20.92;11.18;;;;;;;9.79;83.69;101857.57;1880492;76;21059;-48
2022/11/20 04:25:27;;;;;;;33.15;15.03;;;;;;;9.79;83.60;101866.78;1837251;78;21513;-48
2022/11/20 04:27:56;;;;;;;25.85;11.08;;;;;;;9.74;83.58;101860.72;1856993;77;21186;-47
2022/11/20 04:30:25;;;;;;;26.62;12.40;;;;;;;9.65;83.75;101859.11;1857013;77;21151;-47
2022/11/20 04:32:53;;;;;;;23.70;10.85;;;;;;;9.64;83.88;101861.77;1857030;77;21036;-45
2022/11/20 04:35:22;;;;;;;26.20;11.68;;;;;;;9.62;83.96;101861.78;1857100;77;21126;-47
2022/11/20 04:37:52;;;;;;;27.58;11.20;;;;;;;9.59;84.04;101867.12;1828805;77;21048;-46
2022/11/20 04:40:21;;;;;;;30.02;10.15;;;;;;;9.59;84.04;101875.42;1821937;77;21149;-53
2022/11/20 04:42:50;;;;;;;25.37;10.80;;;;;;;9.54;84.09;101878.16;1829548;77;21179;-50
2022/11/20 04:45:19;;;;;;;26.50;11.35;;;;;;;9.55;84.19;101865.41;1812714;77;21059;-48
2022/11/20 04:47:48;;;;;;;31.30;11.55;;;;;;;9.57;84.18;101866.28;1806155;79;21137;-49
2022/11/20 04:50:16;;;;;;;28.95;11.73;;;;;;;9.62;84.17;101865.73;1815331;77;22205;-48
2022/11/20 04:52:45;;;;;;;23.50;11.85;;;;;;;9.70;84.14;101863.42;1856929;77;21048;-48
2022/11/20 04:55:14;;;;;;;27.25;11.25;;;;;;;9.75;84.16;101870.78;1856805;77;21040;-49
2022/11/20 04:57:43;;;;;;;29.82;12.50;;;;;;;9.76;84.16;101873.85;1856998;77;21511;-50
2022/11/20 05:00:13;;;;;;;21.10;9.88;;;;;;;9.78;84.15;101864.17;1853232;77;21158;-50
2022/11/20 05:02:41;;;;;;;31.05;11.08;;;;;;;9.80;83.93;101859.75;1826546;78;21146;-52
2022/11/20 05:05:10;;;;;;;25.37;11.70;;;;;;;9.83;83.76;101863.61;1826424;78;21410;-51
2022/11/20 05:07:39;;;;;;;22.62;10.43;;;;;;;9.89;83.60;101866.16;1826269;78;21048;-50
2022/11/20 05:10:08;;;;;;;23.32;10.93;;;;;;;9.98;83.49;101858.09;1826393;78;21047;-53
2022/11/20 05:12:37;;;;;;;27.60;11.53;;;;;;;10.11;83.43;101855.23;1828362;77;21111;-52
2022/11/20 05:15:06;;;;;;;30.90;13.83;;;;;;;10.22;83.45;101851.95;1826423;78;21079;-53
2022/11/20 05:17:35;;;;;;;28.38;12.50;;;;;;;10.40;83.58;101856.87;1826416;78;21533;-53
2022/11/20 05:20:04;;;;;;;26.45;12.37;;;;;;;10.69;83.87;101864.59;1826267;78;21056;-58
2022/11/20 05:22:32;;;;;;;25.72;11.83;;;;;;;10.93;83.92;101866.28;1828397;77;21197;-59
2022/11/20 05:25:01;;;;;;;27.10;11.35;;;;;;;11.00;83.70;101853.38;1834104;78;21067;-53
2022/11/20 05:27:30;;;;;;;27.80;11.28;;;;;;;10.99;83.45;101855.59;1886203;76;21011;-48
2022/11/20 05:29:59;;;;;;;22.67;9.90;;;;;;;11.01;83.29;101851.14;1886156;76;21011;-47
2022/11/20 05:32:28;;;;;;;25.60;10.58;;;;;;;11.11;83.21;101855.31;1885194;75;21042;-47
2022/11/20 05:34:56;;;;;;;21.20;10.32;;;;;;;11.52;82.82;101875.84;1886073;75;21067;-46
2022/11/20 05:37:26;;;;;;;26.23;10.03;;;;;;;11.96;81.96;101875.66;1886101;76;21063;-46
2022/11/20 05:39:54;;;;;;;24.98;10.28;;;;;;;12.11;81.53;101882.30;1886140;76;21101;-46
2022/11/20 05:42:32;;;;;;;22.98;10.30;;;;;;;12.37;80.95;101888.17;1886510;75;21098;-45
2022/11/20 05:45:03;;;;;;;23.22;9.73;;;;;;;12.26;80.47;101887.60;1886395;75;21146;-51
2022/11/20 05:47:35;;;;;;;34.27;10.68;;;;;;;12.08;80.64;101881.05;1886148;76;21027;-49
2022/11/20 05:50:05;;;;;;;32.25;11.22;;;;;;;11.89;80.74;101890.73;1886177;76;21039;-50
2022/11/20 05:52:33;;;;;;;27.85;10.58;;;;;;;11.76;80.94;101898.56;1886163;76;21043;-47
2022/11/20 05:55:02;;;;;;;28.80;10.38;;;;;;;11.63;81.08;101897.16;1888252;75;21046;-46
2022/11/20 05:57:32;;;;;;;26.70;10.53;;;;;;;11.54;81.31;101902.19;1886001;76;21469;-48
2022/11/20 06:00:01;;;;;;;26.60;11.10;;;;;;;11.47;81.46;101899.28;1886110;76;21116;-50
2022/11/20 06:02:31;;;;;;;24.02;10.32;;;;;;;11.41;81.62;101897.66;1886093;75;21023;-50
2022/11/20 06:05:00;;;;;;;26.60;11.40;;;;;;;11.36;81.67;101886.35;1888388;75;21051;-49
2022/11/20 06:07:29;;;;;;;27.90;11.25;;;;;;;11.31;81.83;101885.62;1886117;76;21037;-50
2022/11/20 06:09:58;;;;;;;26.40;11.90;;;;;;;11.28;81.93;101881.27;1886064;76;21606;-49
2022/11/20 06:12:26;;;;;;;30.08;11.57;;;;;;;11.26;82.08;101881.77;1888193;75;21114;-48
2022/11/20 06:14:55;;;;;;;25.70;11.00;;;;;;;11.27;82.13;101889.21;1886101;76;21113;-53
2022/11/20 06:17:24;;;;;;;28.92;12.07;;;;;;;11.26;82.28;101888.35;1887533;75;21140;-52
2022/11/20 06:19:52;;;;;;;27.42;11.70;;;;;;;11.27;82.43;101897.13;1890086;75;21110;-49
2022/11/20 06:22:21;;;;;;;28.23;11.93;;;;;;;11.29;82.70;101903.25;1886127;76;21073;-51
2022/11/20 06:24:50;;;;;;;34.58;11.43;;;;;;;11.35;82.71;101903.09;1885972;76;21096;-48
2022/11/20 06:27:19;;;;;;;44.45;11.80;;;;;;;11.36;82.78;101910.98;1886099;76;21017;-51
2022/11/20 06:29:47;;;;;;;28.67;11.08;;;;;;;11.42;82.79;101915.66;1888206;75;21835;-49
2022/11/20 06:32:16;;;;;;;40.08;11.18;;;;;;;11.42;82.74;101931.06;1886171;76;21027;-49
2022/11/20 06:34:45;;;;;;;38.17;13.58;;;;;;;11.44;82.77;101937.16;1886098;76;21031;-49
2022/11/20 06:37:13;;;;;;;40.10;14.43;;;;;;;11.47;82.81;101934.47;1886206;76;21031;-51
2022/11/20 06:39:42;;;;;;;40.03;14.07;;;;;;;11.50;82.86;101929.09;1881495;75;21031;-52
2022/11/20 06:42:11;;;;;;;29.23;12.15;;;;;;;11.55;82.80;101921.94;1876678;76;21039;-51
2022/11/20 06:44:40;;;;;;;41.05;12.68;;;;;;;11.56;82.61;101905.66;1876556;76;21031;-52
2022/11/20 06:47:09;;;;;;;28.60;11.85;;;;;;;11.54;82.43;101903.52;1876545;76;21048;-51
2022/11/20 06:49:38;;;;;;;25.23;10.88;;;;;;;11.50;82.33;101889.53;1885429;75;21363;-51
2022/11/20 06:52:07;;;;;;;34.40;12.15;;;;;;;11.46;82.34;101890.52;1886147;76;21035;-49
2022/11/20 06:54:35;;;;;;;36.75;12.15;;;;;;;11.45;82.32;101884.81;1886071;76;21060;-54
2022/11/20 06:57:04;;;;;;;32.00;12.60;;;;;;;11.47;82.29;101893.59;1886066;75;21043;-56
2022/11/20 06:59:33;;;;;;;29.82;11.40;;;;;;;11.48;82.35;101892.66;1901731;75;21055;-56
2022/11/20 07:02:02;;;;;;;30.23;13.40;;;;;;;11.47;82.34;101898.86;1917394;75;21478;-54
2022/11/20 07:04:31;;;;;;;34.13;14.35;;;;;;;11.51;82.36;101892.59;1895577;74;21129;-54
2022/11/20 07:07:00;;;;;;;36.28;13.35;;;;;;;11.53;82.40;101892.10;1876479;76;21071;-53
2022/11/20 07:09:28;;;;;;;34.30;15.10;;;;;;;11.55;82.39;101896.03;1881375;75;21694;-54
2022/11/20 07:11:57;;;;;;;27.87;11.05;;;;;;;11.54;82.42;101897.77;1886056;76;21431;-52
2022/11/20 07:14:26;;;;;;;29.07;9.75;;;;;;;11.53;82.47;101884.19;1886168;76;21039;-52
2022/11/20 07:16:55;;;;;;;15.03;4.80;;;;;;;11.52;82.46;101875.84;1885986;75;21039;-51
2022/11/20 07:19:23;;;;;;;23.60;10.23;;;;;;;11.50;82.48;101854.38;1890915;74;21031;-51
2022/11/20 07:21:53;;;;;;;24.00;10.45;;;;;;;11.44;82.58;101852.77;1886168;75;21137;-51
2022/11/20 07:24:21;;;;;;;26.82;11.73;;;;;;;11.38;82.80;101838.43;1908678;74;21519;-53
2022/11/20 07:26:50;;;;;;;33.40;14.28;;;;;;;11.38;82.90;101837.11;1928737;74;21031;-53
2022/11/20 07:29:19;;;;;;;29.57;13.85;;;;;;;11.43;82.96;101834.34;1925808;74;21176;-51
2022/11/20 07:31:48;;;;;;;31.40;12.90;;;;;;;11.51;82.99;101837.64;1904687;74;21059;-52
2022/11/20 07:34:17;;;;;;;28.62;11.08;;;;;;;11.59;82.87;101833.91;1928695;74;21461;-52
2022/11/20 07:36:46;;;;;;;28.57;12.18;;;;;;;11.70;82.72;101838.05;1928768;74;21055;-53
2022/11/20 07:39:14;;;;;;;24.45;9.90;;;;;;;11.77;82.58;101839.63;1925499;74;21814;-51
2022/11/20 07:41:43;;;;;;;28.73;11.45;;;;;;;11.86;82.42;101836.74;1928697;74;21101;-48
2022/11/20 07:44:12;;;;;;;19.23;8.55;;;;;;;11.91;82.26;101838.81;1928847;74;21015;-57
2022/11/20 07:46:41;;;;;;;23.10;9.75;;;;;;;11.99;82.15;101834.67;1928837;73;21019;-56
2022/11/20 07:49:09;;;;;;;23.45;9.95;;;;;;;12.06;82.01;101830.06;1927644;73;21023;-57
2022/11/20 07:51:38;;;;;;;21.12;10.68;;;;;;;12.12;81.87;101831.23;1900299;74;21027;-56
2022/11/20 07:54:07;;;;;;;27.95;9.10;;;;;;;12.17;81.80;101825.34;1895686;76;21078;-56
2022/11/20 07:56:36;;;;;;;19.50;7.97;;;;;;;12.23;81.75;101813.74;1895404;75;21480;-56
2022/11/20 07:59:05;;;;;;;21.37;9.03;;;;;;;12.28;81.61;101803.48;1895584;76;21039;-55
2022/11/20 08:01:34;;;;;;;21.93;9.78;;;;;;;12.38;81.53;101806.72;1918537;74;21055;-57
2022/11/20 08:04:27;;;;;;;17.92;8.48;;;;;;;12.43;81.45;101799.95;1926639;74;21520;-58
2022/11/20 08:06:53;;;;;;;20.15;8.30;;;;;;;12.55;81.44;101795.64;1924298;74;21542;-53
2022/11/20 08:09:22;;;;;;;22.55;9.53;;;;;;;12.69;81.39;101800.05;1928674;74;21446;-56
2022/11/20 08:14:39;;;;;;;25.72;10.18;;;;;;;12.83;81.29;101798.75;1928726;74;21003;-54
2022/11/20 08:17:08;;;;;;;20.27;9.38;;;;;;;12.89;81.13;101794.57;1908377;74;21466;-51
2022/11/20 08:19:37;;;;;;;26.40;11.80;;;;;;;13.01;80.97;101796.83;1928821;74;21070;-50
2022/11/20 08:22:07;;;;;;;27.07;10.75;;;;;;;13.10;80.77;101787.28;1902939;74;21023;-56
2022/11/20 08:24:35;;;;;;;23.60;10.75;;;;;;;13.21;80.58;101779.46;1900231;74;21070;-52
2022/11/20 08:27:04;;;;;;;25.17;10.20;;;;;;;13.29;80.40;101767.69;1895658;75;21133;-51
2022/11/20 08:29:33;;;;;;;25.43;9.35;;;;;;;13.39;80.18;101766.97;1906432;75;21094;-49
2022/11/20 08:32:02;;;;;;;21.62;8.83;;;;;;;13.48;79.72;101766.65;1887010;75;21044;-48
2022/11/20 08:34:31;;;;;;;19.52;9.48;;;;;;;13.68;79.25;101760.66;1874233;76;21055;-50
2022/11/20 08:36:59;;;;;;;19.95;9.55;;;;;;;14.35;77.59;101751.12;1874155;76;21149;-54
2022/11/20 08:39:28;;;;;;;20.77;9.93;;;;;;;14.96;76.24;101747.83;1874201;76;21032;-51
2022/11/20 08:41:57;;;;;;;18.85;9.90;;;;;;;15.90;74.44;101742.47;1880329;75;20992;-52
2022/11/20 08:44:26;;;;;;;19.77;9.23;;;;;;;16.18;73.95;101734.56;1906319;74;21055;-53
2022/11/20 08:46:54;;;;;;;20.40;9.10;;;;;;;17.60;71.37;101736.41;1906432;74;21025;-53
2022/11/20 08:49:23;;;;;;;16.40;8.08;;;;;;;18.24;69.34;101716.56;1906399;75;21094;-50
2022/11/20 08:51:54;;;;;;;19.48;8.43;;;;;;;18.87;67.98;101705.87;1905001;75;21032;-53
2022/11/20 08:54:22;;;;;;;17.20;7.53;;;;;;;19.42;66.14;101712.84;1915440;75;21011;-53
2022/11/20 08:59:44;;;;;;;19.37;8.23;;;;;;;19.32;65.68;101707.21;1869429;75;21054;-53
2022/11/20 09:02:13;;;;;;;18.48;8.60;;;;;;;18.97;66.55;101703.50;1915815;75;21097;-49
2022/11/20 09:04:42;;;;;;;17.82;8.23;;;;;;;18.67;66.92;101702.98;1874193;76;21125;-50
2022/11/20 09:07:14;;;;;;;19.17;7.65;;;;;;;18.05;67.83;101700.25;1874063;76;21482;-49
2022/11/20 09:09:43;;;;;;;17.55;7.92;;;;;;;18.34;67.08;101693.78;1874253;76;21090;-49
2022/11/20 09:12:12;;;;;;;20.77;8.78;;;;;;;18.99;65.36;101690.08;1874196;75;21035;-54
2022/11/20 09:14:40;;;;;;;18.17;8.05;;;;;;;19.02;65.06;101685.41;1875217;75;21017;-56
2022/11/20 09:17:13;;;;;;;25.00;8.88;;;;;;;18.37;66.12;101682.95;1874219;76;21523;-55
2022/11/20 09:19:42;;;;;;;14.53;8.08;;;;;;;17.67;67.60;101680.55;1874179;76;21054;-48
2022/11/20 09:22:10;;;;;;;18.10;9.00;;;;;;;17.17;68.85;101680.07;1891702;75;21056;-46
2022/11/20 09:24:39;;;;;;;17.52;7.78;;;;;;;17.02;69.25;101678.21;1906114;75;21116;-52
2022/11/20 09:27:08;;;;;;;15.98;7.00;;;;;;;17.00;69.42;101680.09;1906458;75;21075;-48
2022/11/20 09:29:37;;;;;;;19.05;7.53;;;;;;;16.89;69.88;101672.17;1906380;75;21153;-48
2022/11/20 09:32:06;;;;;;;18.30;7.95;;;;;;;16.73;70.26;101671.22;1903925;75;21063;-51
2022/11/20 09:34:37;;;;;;;16.65;8.20;;;;;;;16.64;70.59;101665.03;1906353;75;21032;-54
2022/11/20 09:37:09;;;;;;;19.73;8.55;;;;;;;16.38;70.84;101667.17;1867592;75;21460;-57
2022/11/20 09:39:53;;;;;;;;;;;;;;;;;;;;;
2022/11/20 09:42:37;;;;;;;17.62;9.08;;;;;;;16.02;71.81;101658.22;1898139;74;21063;-55
2022/11/20 09:45:21;;;;;;;19.02;8.35;;;;;;;15.98;71.92;101657.12;1873961;76;21107;-47
2022/11/20 09:47:59;;;;;;;18.77;8.65;;;;;;;16.08;71.78;101643.78;1862059;76;21095;-50
2022/11/20 09:50:47;;;;;;;19.50;9.28;;;;;;;16.32;71.47;101644.86;1874969;75;21454;-50
2022/11/20 09:53:18;;;;;;;16.45;9.05;;;;;;;16.66;70.91;101641.88;1884051;75;21105;-52
2022/11/20 09:55:48;;;;;;;25.25;12.40;;;;;;;17.00;70.23;101636.20;1888324;75;21008;-53
2022/11/20 09:58:32;;;;;;;22.98;11.40;;;;;;;17.64;69.09;101629.26;1888291;75;21052;-53
2022/11/20 10:01:14;;;;;;;22.82;10.90;;;;;;;18.74;66.71;101617.25;1906819;74;21514;-49
2022/11/20 10:03:48;;;;;;;19.98;9.55;;;;;;;20.88;62.20;101614.38;1878313;74;21435;-46
2022/11/20 10:06:20;;;;;;;25.27;13.55;;;;;;;22.51;59.00;101606.72;1874005;75;21043;-51
2022/11/20 10:09:14;;;;;;;20.12;9.58;;;;;;;23.75;56.72;101602.83;1874194;76;21486;-50
2022/11/20 10:12:01;;;;;;;9.50;3.52;;;;;;;24.65;55.08;101609.30;1878628;75;21127;-48
2022/11/20 10:14:35;;;;;;;7.78;3.87;;;;;;;25.20;51.41;101598.30;1896918;74;21558;-48
2022/11/20 10:17:13;;;;;;;4.97;2.98;;;;;;;24.99;46.49;101602.86;1874133;75;21496;-50
2022/11/20 10:20:03;;;;;;;5.72;2.85;;;;;;;24.66;46.84;101597.56;1874293;75;21131;-58
2022/11/20 10:22:52;;;;;;;8.68;3.98;;;;;;;25.07;45.78;101588.74;1876111;75;21226;-54
2022/11/20 10:25:24;;;;;;;7.45;2.40;;;;;;;25.26;43.55;101587.50;1903440;75;21101;-50
2022/11/20 10:28:12;;;;;;;4.72;2.90;;;;;;;25.13;43.59;101584.16;1893284;74;21071;-51
2022/11/20 10:30:43;;;;;;;6.28;3.08;;;;;;;24.75;41.94;101581.59;1874225;75;21530;-47
2022/11/20 10:33:19;;;;;;;7.35;3.08;;;;;;;24.10;42.11;101572.21;1876793;75;21131;-57
2022/11/20 10:36:03;;;;;;;6.15;3.90;;;;;;;23.69;42.55;101579.98;1873101;76;21106;-53
2022/11/20 10:38:40;;;;;;;7.25;3.70;;;;;;;23.71;43.04;101575.34;1872849;75;21109;-46
2022/11/20 10:41:27;;;;;;;9.10;3.77;;;;;;;23.75;42.90;101568.38;1905571;75;21019;-49
2022/11/20 10:45:05;;;;;;;6.60;2.75;;;;;;;24.08;43.03;101568.80;1875912;76;21031;-49
2022/11/20 10:46:50;;;;;;;7.65;3.40;;;;;;;24.30;42.59;101548.17;1864123;76;21579;-46
2022/11/20 10:49:21;;;;;;;5.85;3.22;;;;;;;23.97;42.07;101541.94;1874069;76;21475;-49
2022/11/20 10:52:17;;;;;;;8.53;3.00;;;;;;;24.56;41.11;101546.82;1889608;75;21101;-48
2022/11/20 10:54:57;;;;;;;8.03;3.37;;;;;;;24.62;41.33;101546.31;1906456;75;21524;-47
2022/11/20 10:57:32;;;;;;;7.33;3.17;;;;;;;24.83;41.44;101535.51;1906201;74;21059;-46
2022/11/20 11:00:06;;;;;;;8.48;3.25;;;;;;;24.94;38.63;101532.38;1905542;75;21107;-50
2022/11/20 11:02:53;;;;;;;4.03;2.85;;;;;;;24.87;38.94;101523.97;1906534;74;21051;-52
2022/11/20 11:05:43;;;;;;;5.80;2.72;;;;;;;25.29;38.52;101523.91;1873738;76;21084;-55
2022/11/20 11:08:15;;;;;;;6.40;3.17;;;;;;;25.58;38.23;101522.63;1873909;76;21137;-57
2022/11/20 11:10:56;;;;;;;7.50;3.47;;;;;;;25.38;38.03;101512.30;1873478;76;21627;-56
2022/11/20 11:13:27;;;;;;;6.90;3.25;;;;;;;25.40;37.76;101507.61;1874718;75;21036;-53
2022/11/20 11:15:56;;;;;;;8.18;4.10;;;;;;;25.37;37.69;101509.73;1874396;74;21059;-53
2022/11/20 11:18:31;;;;;;;5.87;3.33;;;;;;;25.21;38.34;101507.52;1874217;76;21521;-52
2022/11/20 11:21:06;;;;;;;6.47;3.42;;;;;;;24.68;38.85;101501.84;1876363;75;21028;-56
2022/11/20 11:23:42;;;;;;;6.97;4.08;;;;;;;24.47;39.43;101508.08;1873485;76;21067;-56
2022/11/20 11:26:25;;;;;;;6.85;3.50;;;;;;;24.20;39.82;101503.20;1876402;75;21145;-53
2022/11/20 11:29:05;;;;;;;6.83;3.33;;;;;;;23.96;40.52;101495.84;1874151;75;21075;-53
2022/11/20 11:31:35;;;;;;;8.50;3.90;;;;;;;23.73;41.04;101498.59;1875002;75;21043;-57
2022/11/20 11:34:15;;;;;;;6.65;3.45;;;;;;;23.64;40.78;101488.09;1874323;76;21044;-57
2022/11/20 11:36:50;;;;;;;6.60;3.50;;;;;;;23.62;40.93;101491.41;1874242;76;21080;-57
2022/11/20 11:39:21;;;;;;;5.12;3.12;;;;;;;23.25;41.93;101489.04;1873958;76;21133;-55
2022/11/20 11:41:51;;;;;;;8.18;3.67;;;;;;;22.75;42.58;101489.39;1888027;75;21105;-53
2022/11/20 11:47:28;;;;;;;9.58;3.35;;;;;;;22.03;44.62;101482.02;1874365;76;21039;-53
2022/11/20 11:50:15;;;;;;;7.42;3.52;;;;;;;21.97;45.11;101468.59;1874078;76;21138;-55